sensor_id;sensor_type;location;lat;lon;timestamp;P1;durP1;ratioP1;P2;durP2;ratioP2
23658;SDS011;12006;42.666;23.326;2023-06-26T00:00:48;17.13;;;14.10;;
23658;SDS011;12006;42.666;23.326;2023-06-26T00:03:13;16.92;;;13.85;;
23658;SDS011;12006;42.666;23.326;2023-06-26T00:05:40;16.63;;;14.57;;
23658;SDS011;12006;42.666;23.326;2023-06-26T00:08:06;16.20;;;13.65;;
23658;SDS011;12006;42.666;23.326;2023-06-26T00:10:32;15.60;;;13.77;;
23658;SDS011;12006;42.666;23.326;2023-06-26T00:12:57;17.17;;;14.00;;
23658;SDS011;12006;42.666;23.326;2023-06-26T00:15:23;16.27;;;13.55;;
23658;SDS011;12006;42.666;23.326;2023-06-26T00:17:49;16.45;;;13.93;;
23658;SDS011;12006;42.666;23.326;2023-06-26T00:20:15;17.42;;;14.23;;
23658;SDS011;12006;42.666;23.326;2023-06-26T00:22:41;14.80;;;13.20;;
23658;SDS011;12006;42.666;23.326;2023-06-26T00:25:07;16.80;;;13.52;;
23658;SDS011;12006;42.666;23.326;2023-06-26T00:27:32;16.42;;;13.35;;
23658;SDS011;12006;42.666;23.326;2023-06-26T00:29:58;14.95;;;12.82;;
23658;SDS011;12006;42.666;23.326;2023-06-26T00:32:23;16.58;;;13.52;;
23658;SDS011;12006;42.666;23.326;2023-06-26T00:34:49;14.90;;;12.30;;
23658;SDS011;12006;42.666;23.326;2023-06-26T00:37:15;18.25;;;13.13;;
23658;SDS011;12006;42.666;23.326;2023-06-26T00:39:40;13.30;;;11.90;;
23658;SDS011;12006;42.666;23.326;2023-06-26T00:42:06;13.63;;;11.73;;
23658;SDS011;12006;42.666;23.326;2023-06-26T00:44:31;13.18;;;11.77;;
23658;SDS011;12006;42.666;23.326;2023-06-26T00:46:57;13.75;;;12.18;;
23658;SDS011;12006;42.666;23.326;2023-06-26T00:49:22;12.77;;;11.15;;
23658;SDS011;12006;42.666;23.326;2023-06-26T00:51:48;13.18;;;11.38;;
23658;SDS011;12006;42.666;23.326;2023-06-26T00:54:14;12.75;;;11.07;;
23658;SDS011;12006;42.666;23.326;2023-06-26T00:56:45;12.70;;;11.38;;
23658;SDS011;12006;42.666;23.326;2023-06-26T00:59:11;12.80;;;11.50;;
23658;SDS011;12006;42.666;23.326;2023-06-26T01:01:37;12.55;;;10.82;;
23658;SDS011;12006;42.666;23.326;2023-06-26T01:04:02;12.25;;;9.63;;
23658;SDS011;12006;42.666;23.326;2023-06-26T01:06:28;13.80;;;11.23;;
23658;SDS011;12006;42.666;23.326;2023-06-26T01:08:57;13.55;;;11.65;;
23658;SDS011;12006;42.666;23.326;2023-06-26T01:11:23;12.73;;;11.27;;
23658;SDS011;12006;42.666;23.326;2023-06-26T01:13:49;12.02;;;10.70;;
23658;SDS011;12006;42.666;23.326;2023-06-26T01:16:16;11.60;;;10.32;;
23658;SDS011;12006;42.666;23.326;2023-06-26T01:18:44;12.30;;;10.50;;
23658;SDS011;12006;42.666;23.326;2023-06-26T01:21:10;13.73;;;11.00;;
23658;SDS011;12006;42.666;23.326;2023-06-26T01:23:49;13.45;;;11.95;;
23658;SDS011;12006;42.666;23.326;2023-06-26T01:26:25;12.63;;;10.48;;
23658;SDS011;12006;42.666;23.326;2023-06-26T01:28:54;11.32;;;9.93;;
23658;SDS011;12006;42.666;23.326;2023-06-26T01:31:23;12.63;;;11.30;;
23658;SDS011;12006;42.666;23.326;2023-06-26T01:33:49;11.68;;;10.38;;
23658;SDS011;12006;42.666;23.326;2023-06-26T01:36:14;13.18;;;11.77;;
23658;SDS011;12006;42.666;23.326;2023-06-26T01:38:40;12.32;;;11.02;;
23658;SDS011;12006;42.666;23.326;2023-06-26T01:41:05;12.60;;;11.27;;
23658;SDS011;12006;42.666;23.326;2023-06-26T01:46:22;12.65;;;11.30;;
23658;SDS011;12006;42.666;23.326;2023-06-26T01:48:55;12.10;;;10.80;;
23658;SDS011;12006;42.666;23.326;2023-06-26T01:51:47;12.25;;;10.88;;
23658;SDS011;12006;42.666;23.326;2023-06-26T01:54:20;13.13;;;10.95;;
23658;SDS011;12006;42.666;23.326;2023-06-26T01:56:49;15.82;;;11.95;;
23658;SDS011;12006;42.666;23.326;2023-06-26T01:59:17;13.27;;;11.82;;
23658;SDS011;12006;42.666;23.326;2023-06-26T02:01:46;13.52;;;12.13;;
23658;SDS011;12006;42.666;23.326;2023-06-26T02:04:12;14.32;;;10.85;;
23658;SDS011;12006;42.666;23.326;2023-06-26T02:06:37;11.88;;;10.55;;
23658;SDS011;12006;42.666;23.326;2023-06-26T02:09:03;12.25;;;10.95;;
23658;SDS011;12006;42.666;23.326;2023-06-26T02:11:28;14.13;;;11.70;;
23658;SDS011;12006;42.666;23.326;2023-06-26T02:13:54;13.73;;;11.48;;
23658;SDS011;12006;42.666;23.326;2023-06-26T02:16:19;13.13;;;11.70;;
23658;SDS011;12006;42.666;23.326;2023-06-26T02:18:45;14.70;;;12.25;;
23658;SDS011;12006;42.666;23.326;2023-06-26T02:21:10;13.98;;;11.73;;
23658;SDS011;12006;42.666;23.326;2023-06-26T02:23:36;15.90;;;12.50;;
23658;SDS011;12006;42.666;23.326;2023-06-26T02:26:02;14.30;;;12.85;;
23658;SDS011;12006;42.666;23.326;2023-06-26T02:28:27;14.00;;;12.60;;
23658;SDS011;12006;42.666;23.326;2023-06-26T02:30:52;13.80;;;12.40;;
23658;SDS011;12006;42.666;23.326;2023-06-26T02:33:18;13.80;;;12.35;;
23658;SDS011;12006;42.666;23.326;2023-06-26T02:35:43;14.10;;;12.70;;
23658;SDS011;12006;42.666;23.326;2023-06-26T02:38:09;14.75;;;12.68;;
23658;SDS011;12006;42.666;23.326;2023-06-26T02:40:34;14.40;;;12.90;;
23658;SDS011;12006;42.666;23.326;2023-06-26T02:42:59;15.43;;;13.38;;
23658;SDS011;12006;42.666;23.326;2023-06-26T02:45:25;15.98;;;14.38;;
23658;SDS011;12006;42.666;23.326;2023-06-26T02:47:50;15.55;;;13.32;;
23658;SDS011;12006;42.666;23.326;2023-06-26T02:50:15;16.23;;;14.38;;
23658;SDS011;12006;42.666;23.326;2023-06-26T02:52:41;14.30;;;12.73;;
23658;SDS011;12006;42.666;23.326;2023-06-26T02:55:06;15.95;;;14.27;;
23658;SDS011;12006;42.666;23.326;2023-06-26T02:57:32;16.33;;;13.35;;
23658;SDS011;12006;42.666;23.326;2023-06-26T02:59:57;15.98;;;13.25;;
23658;SDS011;12006;42.666;23.326;2023-06-26T03:02:23;15.75;;;14.05;;
23658;SDS011;12006;42.666;23.326;2023-06-26T03:04:48;15.07;;;13.52;;
23658;SDS011;12006;42.666;23.326;2023-06-26T03:07:14;16.38;;;13.90;;
23658;SDS011;12006;42.666;23.326;2023-06-26T03:09:40;17.30;;;15.57;;
23658;SDS011;12006;42.666;23.326;2023-06-26T03:12:06;15.63;;;14.02;;
23658;SDS011;12006;42.666;23.326;2023-06-26T03:14:32;16.83;;;14.25;;
23658;SDS011;12006;42.666;23.326;2023-06-26T03:16:58;17.02;;;15.20;;
23658;SDS011;12006;42.666;23.326;2023-06-26T03:19:24;17.17;;;15.38;;
23658;SDS011;12006;42.666;23.326;2023-06-26T03:21:49;17.27;;;15.48;;
23658;SDS011;12006;42.666;23.326;2023-06-26T03:24:15;16.33;;;14.63;;
23658;SDS011;12006;42.666;23.326;2023-06-26T03:26:40;16.80;;;15.05;;
23658;SDS011;12006;42.666;23.326;2023-06-26T03:29:06;16.70;;;14.93;;
23658;SDS011;12006;42.666;23.326;2023-06-26T03:31:31;16.83;;;15.13;;
23658;SDS011;12006;42.666;23.326;2023-06-26T03:33:56;18.00;;;16.10;;
23658;SDS011;12006;42.666;23.326;2023-06-26T03:36:22;16.25;;;14.38;;
23658;SDS011;12006;42.666;23.326;2023-06-26T03:38:47;17.85;;;15.95;;
23658;SDS011;12006;42.666;23.326;2023-06-26T03:41:12;18.70;;;16.23;;
23658;SDS011;12006;42.666;23.326;2023-06-26T03:43:38;17.48;;;15.68;;
23658;SDS011;12006;42.666;23.326;2023-06-26T03:46:03;16.10;;;14.38;;
23658;SDS011;12006;42.666;23.326;2023-06-26T03:48:29;16.70;;;14.93;;
23658;SDS011;12006;42.666;23.326;2023-06-26T03:50:54;17.08;;;15.27;;
23658;SDS011;12006;42.666;23.326;2023-06-26T03:53:20;18.77;;;16.88;;
23658;SDS011;12006;42.666;23.326;2023-06-26T03:55:46;16.65;;;14.95;;
23658;SDS011;12006;42.666;23.326;2023-06-26T03:58:12;17.52;;;15.52;;
23658;SDS011;12006;42.666;23.326;2023-06-26T04:00:37;17.50;;;15.75;;
23658;SDS011;12006;42.666;23.326;2023-06-26T04:03:02;17.23;;;15.07;;
23658;SDS011;12006;42.666;23.326;2023-06-26T04:05:29;16.85;;;15.05;;
23658;SDS011;12006;42.666;23.326;2023-06-26T04:07:54;16.30;;;14.70;;
23658;SDS011;12006;42.666;23.326;2023-06-26T04:10:20;16.00;;;13.70;;
23658;SDS011;12006;42.666;23.326;2023-06-26T04:12:46;16.00;;;14.30;;
23658;SDS011;12006;42.666;23.326;2023-06-26T04:15:12;15.68;;;14.07;;
23658;SDS011;12006;42.666;23.326;2023-06-26T04:17:38;15.27;;;13.68;;
23658;SDS011;12006;42.666;23.326;2023-06-26T04:20:03;15.05;;;13.45;;
23658;SDS011;12006;42.666;23.326;2023-06-26T04:22:31;16.92;;;14.30;;
23658;SDS011;12006;42.666;23.326;2023-06-26T04:24:57;14.55;;;13.00;;
23658;SDS011;12006;42.666;23.326;2023-06-26T04:27:22;14.85;;;13.35;;
23658;SDS011;12006;42.666;23.326;2023-06-26T04:29:48;14.45;;;12.95;;
23658;SDS011;12006;42.666;23.326;2023-06-26T04:32:13;15.55;;;12.25;;
23658;SDS011;12006;42.666;23.326;2023-06-26T04:34:38;15.02;;;13.43;;
23658;SDS011;12006;42.666;23.326;2023-06-26T04:37:07;14.32;;;12.85;;
23658;SDS011;12006;42.666;23.326;2023-06-26T04:39:34;14.63;;;12.40;;
23658;SDS011;12006;42.666;23.326;2023-06-26T04:42:01;16.02;;;13.35;;
23658;SDS011;12006;42.666;23.326;2023-06-26T04:44:27;13.85;;;12.45;;
23658;SDS011;12006;42.666;23.326;2023-06-26T04:46:52;13.13;;;11.75;;
23658;SDS011;12006;42.666;23.326;2023-06-26T04:49:18;15.10;;;13.18;;
23658;SDS011;12006;42.666;23.326;2023-06-26T04:51:43;14.70;;;11.82;;
23658;SDS011;12006;42.666;23.326;2023-06-26T04:54:10;12.90;;;11.60;;
23658;SDS011;12006;42.666;23.326;2023-06-26T04:56:36;15.75;;;13.82;;
23658;SDS011;12006;42.666;23.326;2023-06-26T04:59:01;14.70;;;13.18;;
23658;SDS011;12006;42.666;23.326;2023-06-26T05:01:28;16.30;;;14.15;;
23658;SDS011;12006;42.666;23.326;2023-06-26T05:03:55;14.73;;;13.18;;
23658;SDS011;12006;42.666;23.326;2023-06-26T05:06:26;14.55;;;13.05;;
23658;SDS011;12006;42.666;23.326;2023-06-26T05:08:51;19.17;;;14.20;;
23658;SDS011;12006;42.666;23.326;2023-06-26T05:11:17;14.25;;;12.75;;
23658;SDS011;12006;42.666;23.326;2023-06-26T05:13:42;14.90;;;13.40;;
23658;SDS011;12006;42.666;23.326;2023-06-26T05:16:08;14.93;;;13.52;;
23658;SDS011;12006;42.666;23.326;2023-06-26T05:18:34;14.32;;;12.82;;
23658;SDS011;12006;42.666;23.326;2023-06-26T05:21:01;14.23;;;12.52;;
23658;SDS011;12006;42.666;23.326;2023-06-26T05:23:28;14.02;;;12.73;;
23658;SDS011;12006;42.666;23.326;2023-06-26T05:25:56;14.82;;;13.32;;
23658;SDS011;12006;42.666;23.326;2023-06-26T05:28:22;15.73;;;12.32;;
23658;SDS011;12006;42.666;23.326;2023-06-26T05:30:49;14.20;;;12.80;;
23658;SDS011;12006;42.666;23.326;2023-06-26T05:33:19;13.35;;;11.90;;
23658;SDS011;12006;42.666;23.326;2023-06-26T05:35:48;14.20;;;12.80;;
23658;SDS011;12006;42.666;23.326;2023-06-26T05:38:14;12.63;;;11.45;;
23658;SDS011;12006;42.666;23.326;2023-06-26T05:40:40;12.70;;;11.50;;
23658;SDS011;12006;42.666;23.326;2023-06-26T05:43:05;13.55;;;12.23;;
23658;SDS011;12006;42.666;23.326;2023-06-26T05:45:31;14.30;;;12.90;;
23658;SDS011;12006;42.666;23.326;2023-06-26T05:47:57;12.15;;;10.90;;
23658;SDS011;12006;42.666;23.326;2023-06-26T05:50:23;12.18;;;11.00;;
23658;SDS011;12006;42.666;23.326;2023-06-26T05:52:48;13.18;;;11.93;;
23658;SDS011;12006;42.666;23.326;2023-06-26T05:55:14;13.95;;;12.52;;
23658;SDS011;12006;42.666;23.326;2023-06-26T05:57:40;14.93;;;12.98;;
23658;SDS011;12006;42.666;23.326;2023-06-26T06:00:06;13.20;;;11.80;;
23658;SDS011;12006;42.666;23.326;2023-06-26T06:02:36;13.48;;;11.95;;
23658;SDS011;12006;42.666;23.326;2023-06-26T06:05:02;12.15;;;10.85;;
23658;SDS011;12006;42.666;23.326;2023-06-26T06:07:28;12.15;;;10.73;;
23658;SDS011;12006;42.666;23.326;2023-06-26T06:09:53;12.88;;;11.68;;
23658;SDS011;12006;42.666;23.326;2023-06-26T06:12:18;14.35;;;11.20;;
23658;SDS011;12006;42.666;23.326;2023-06-26T06:14:44;10.27;;;9.05;;
23658;SDS011;12006;42.666;23.326;2023-06-26T06:17:09;11.85;;;10.75;;
23658;SDS011;12006;42.666;23.326;2023-06-26T06:19:35;12.02;;;10.60;;
23658;SDS011;12006;42.666;23.326;2023-06-26T06:22:00;12.65;;;11.35;;
23658;SDS011;12006;42.666;23.326;2023-06-26T06:24:25;12.27;;;11.05;;
23658;SDS011;12006;42.666;23.326;2023-06-26T06:26:51;12.07;;;10.75;;
23658;SDS011;12006;42.666;23.326;2023-06-26T06:29:16;10.48;;;9.43;;
23658;SDS011;12006;42.666;23.326;2023-06-26T06:31:44;13.43;;;11.65;;
23658;SDS011;12006;42.666;23.326;2023-06-26T06:34:09;11.82;;;9.38;;
23658;SDS011;12006;42.666;23.326;2023-06-26T06:36:34;10.65;;;9.55;;
23658;SDS011;12006;42.666;23.326;2023-06-26T06:39:00;11.32;;;10.20;;
23658;SDS011;12006;42.666;23.326;2023-06-26T06:41:25;10.65;;;9.65;;
23658;SDS011;12006;42.666;23.326;2023-06-26T06:43:50;10.60;;;8.90;;
23658;SDS011;12006;42.666;23.326;2023-06-26T06:46:16;11.50;;;10.18;;
23658;SDS011;12006;42.666;23.326;2023-06-26T06:48:41;12.82;;;11.20;;
23658;SDS011;12006;42.666;23.326;2023-06-26T06:51:07;12.15;;;10.57;;
23658;SDS011;12006;42.666;23.326;2023-06-26T06:53:32;13.25;;;10.82;;
23658;SDS011;12006;42.666;23.326;2023-06-26T06:55:58;11.10;;;9.95;;
23658;SDS011;12006;42.666;23.326;2023-06-26T06:58:23;10.82;;;9.77;;
23658;SDS011;12006;42.666;23.326;2023-06-26T07:00:49;9.93;;;8.93;;
23658;SDS011;12006;42.666;23.326;2023-06-26T07:03:16;9.13;;;8.23;;
23658;SDS011;12006;42.666;23.326;2023-06-26T07:05:41;10.05;;;9.02;;
23658;SDS011;12006;42.666;23.326;2023-06-26T07:08:07;9.77;;;8.85;;
23658;SDS011;12006;42.666;23.326;2023-06-26T07:10:33;10.43;;;9.43;;
23658;SDS011;12006;42.666;23.326;2023-06-26T07:12:58;9.98;;;9.05;;
23658;SDS011;12006;42.666;23.326;2023-06-26T07:15:24;9.48;;;8.57;;
23658;SDS011;12006;42.666;23.326;2023-06-26T07:17:49;8.00;;;7.30;;
23658;SDS011;12006;42.666;23.326;2023-06-26T07:20:15;9.00;;;7.93;;
23658;SDS011;12006;42.666;23.326;2023-06-26T07:22:41;8.98;;;8.07;;
23658;SDS011;12006;42.666;23.326;2023-06-26T07:25:07;9.88;;;8.88;;
23658;SDS011;12006;42.666;23.326;2023-06-26T07:27:36;8.85;;;7.95;;
23658;SDS011;12006;42.666;23.326;2023-06-26T07:30:02;9.00;;;8.20;;
23658;SDS011;12006;42.666;23.326;2023-06-26T07:32:28;7.50;;;6.85;;
23658;SDS011;12006;42.666;23.326;2023-06-26T07:34:53;6.25;;;5.75;;
23658;SDS011;12006;42.666;23.326;2023-06-26T07:37:19;6.28;;;5.63;;
23658;SDS011;12006;42.666;23.326;2023-06-26T07:39:44;6.38;;;5.57;;
23658;SDS011;12006;42.666;23.326;2023-06-26T07:42:10;6.45;;;5.85;;
23658;SDS011;12006;42.666;23.326;2023-06-26T07:44:35;6.35;;;5.75;;
23658;SDS011;12006;42.666;23.326;2023-06-26T07:47:01;7.20;;;5.90;;
23658;SDS011;12006;42.666;23.326;2023-06-26T07:49:26;6.53;;;5.90;;
23658;SDS011;12006;42.666;23.326;2023-06-26T07:51:52;6.10;;;5.60;;
23658;SDS011;12006;42.666;23.326;2023-06-26T07:54:17;7.05;;;5.30;;
23658;SDS011;12006;42.666;23.326;2023-06-26T07:56:52;5.93;;;5.43;;
23658;SDS011;12006;42.666;23.326;2023-06-26T07:59:18;6.97;;;6.28;;
23658;SDS011;12006;42.666;23.326;2023-06-26T08:01:43;6.93;;;6.22;;
23658;SDS011;12006;42.666;23.326;2023-06-26T08:04:09;7.03;;;6.32;;
23658;SDS011;12006;42.666;23.326;2023-06-26T08:06:35;6.15;;;5.65;;
23658;SDS011;12006;42.666;23.326;2023-06-26T08:09:05;5.85;;;5.30;;
23658;SDS011;12006;42.666;23.326;2023-06-26T08:11:32;6.65;;;6.05;;
23658;SDS011;12006;42.666;23.326;2023-06-26T08:13:58;6.18;;;5.68;;
23658;SDS011;12006;42.666;23.326;2023-06-26T08:16:23;5.57;;;5.07;;
23658;SDS011;12006;42.666;23.326;2023-06-26T08:18:49;5.32;;;4.82;;
23658;SDS011;12006;42.666;23.326;2023-06-26T08:21:14;6.00;;;4.88;;
23658;SDS011;12006;42.666;23.326;2023-06-26T08:23:39;5.45;;;4.95;;
23658;SDS011;12006;42.666;23.326;2023-06-26T08:26:05;6.32;;;5.72;;
23658;SDS011;12006;42.666;23.326;2023-06-26T08:28:30;5.95;;;5.35;;
23658;SDS011;12006;42.666;23.326;2023-06-26T08:30:55;5.82;;;5.30;;
23658;SDS011;12006;42.666;23.326;2023-06-26T08:33:21;5.95;;;5.45;;
23658;SDS011;12006;42.666;23.326;2023-06-26T08:35:46;6.13;;;5.53;;
23658;SDS011;12006;42.666;23.326;2023-06-26T08:38:11;6.25;;;5.28;;
23658;SDS011;12006;42.666;23.326;2023-06-26T08:40:37;6.00;;;5.50;;
23658;SDS011;12006;42.666;23.326;2023-06-26T08:43:03;7.97;;;5.30;;
23658;SDS011;12006;42.666;23.326;2023-06-26T08:45:29;5.63;;;5.13;;
23658;SDS011;12006;42.666;23.326;2023-06-26T08:47:55;5.40;;;4.82;;
23658;SDS011;12006;42.666;23.326;2023-06-26T08:50:24;5.57;;;5.03;;
23658;SDS011;12006;42.666;23.326;2023-06-26T08:55:45;7.35;;;5.07;;
23658;SDS011;12006;42.666;23.326;2023-06-26T08:58:17;6.18;;;4.78;;
23658;SDS011;12006;42.666;23.326;2023-06-26T09:00:42;4.38;;;4.03;;
23658;SDS011;12006;42.666;23.326;2023-06-26T09:03:08;5.20;;;4.80;;
23658;SDS011;12006;42.666;23.326;2023-06-26T09:05:34;5.10;;;4.70;;
23658;SDS011;12006;42.666;23.326;2023-06-26T09:08:00;4.60;;;4.20;;
23658;SDS011;12006;42.666;23.326;2023-06-26T09:10:26;5.68;;;4.93;;
23658;SDS011;12006;42.666;23.326;2023-06-26T09:12:51;5.80;;;5.30;;
23658;SDS011;12006;42.666;23.326;2023-06-26T09:15:21;5.82;;;4.72;;
23658;SDS011;12006;42.666;23.326;2023-06-26T09:17:47;4.68;;;4.28;;
23658;SDS011;12006;42.666;23.326;2023-06-26T09:20:13;6.18;;;4.90;;
23658;SDS011;12006;42.666;23.326;2023-06-26T09:22:41;4.95;;;4.55;;
23658;SDS011;12006;42.666;23.326;2023-06-26T09:25:08;5.47;;;4.88;;
23658;SDS011;12006;42.666;23.326;2023-06-26T09:27:35;5.88;;;4.43;;
23658;SDS011;12006;42.666;23.326;2023-06-26T09:30:04;5.38;;;4.88;;
23658;SDS011;12006;42.666;23.326;2023-06-26T09:32:34;4.55;;;3.70;;
23658;SDS011;12006;42.666;23.326;2023-06-26T09:35:02;4.55;;;4.15;;
23658;SDS011;12006;42.666;23.326;2023-06-26T09:37:28;5.95;;;5.35;;
23658;SDS011;12006;42.666;23.326;2023-06-26T09:39:54;5.70;;;4.55;;
23658;SDS011;12006;42.666;23.326;2023-06-26T09:42:20;6.90;;;4.53;;
23658;SDS011;12006;42.666;23.326;2023-06-26T09:44:46;5.03;;;4.57;;
23658;SDS011;12006;42.666;23.326;2023-06-26T09:47:15;4.65;;;4.25;;
23658;SDS011;12006;42.666;23.326;2023-06-26T09:49:42;4.97;;;4.57;;
23658;SDS011;12006;42.666;23.326;2023-06-26T09:52:08;5.88;;;5.28;;
23658;SDS011;12006;42.666;23.326;2023-06-26T09:54:34;4.07;;;3.38;;
23658;SDS011;12006;42.666;23.326;2023-06-26T09:57:09;4.50;;;4.10;;
23658;SDS011;12006;42.666;23.326;2023-06-26T09:59:36;5.00;;;4.50;;
23658;SDS011;12006;42.666;23.326;2023-06-26T10:02:02;5.43;;;4.57;;
23658;SDS011;12006;42.666;23.326;2023-06-26T10:04:27;5.43;;;4.50;;
23658;SDS011;12006;42.666;23.326;2023-06-26T10:06:56;5.30;;;4.82;;
23658;SDS011;12006;42.666;23.326;2023-06-26T10:09:23;4.60;;;3.80;;
23658;SDS011;12006;42.666;23.326;2023-06-26T10:14:43;4.45;;;4.05;;
23658;SDS011;12006;42.666;23.326;2023-06-26T10:17:09;7.28;;;4.20;;
23658;SDS011;12006;42.666;23.326;2023-06-26T10:19:38;5.82;;;3.90;;
23658;SDS011;12006;42.666;23.326;2023-06-26T10:22:06;4.50;;;4.10;;
23658;SDS011;12006;42.666;23.326;2023-06-26T10:24:33;5.07;;;4.25;;
23658;SDS011;12006;42.666;23.326;2023-06-26T10:27:07;4.90;;;4.20;;
23658;SDS011;12006;42.666;23.326;2023-06-26T10:29:39;4.38;;;3.97;;
23658;SDS011;12006;42.666;23.326;2023-06-26T10:32:05;4.47;;;4.07;;
23658;SDS011;12006;42.666;23.326;2023-06-26T10:34:32;4.90;;;4.43;;
23658;SDS011;12006;42.666;23.326;2023-06-26T10:36:58;5.22;;;4.72;;
23658;SDS011;12006;42.666;23.326;2023-06-26T10:39:26;4.47;;;4.07;;
23658;SDS011;12006;42.666;23.326;2023-06-26T10:41:54;5.32;;;4.82;;
23658;SDS011;12006;42.666;23.326;2023-06-26T10:44:20;8.75;;;7.85;;
23658;SDS011;12006;42.666;23.326;2023-06-26T10:46:50;5.47;;;4.80;;
23658;SDS011;12006;42.666;23.326;2023-06-26T10:49:17;4.93;;;4.43;;
23658;SDS011;12006;42.666;23.326;2023-06-26T10:51:46;5.05;;;4.55;;
23658;SDS011;12006;42.666;23.326;2023-06-26T10:54:18;6.30;;;4.10;;
23658;SDS011;12006;42.666;23.326;2023-06-26T10:56:48;4.93;;;4.45;;
23658;SDS011;12006;42.666;23.326;2023-06-26T11:01:43;6.07;;;4.28;;
23658;SDS011;12006;42.666;23.326;2023-06-26T11:04:11;5.45;;;4.95;;
23658;SDS011;12006;42.666;23.326;2023-06-26T11:06:39;4.88;;;4.47;;
23658;SDS011;12006;42.666;23.326;2023-06-26T11:14:18;4.72;;;4.32;;
23658;SDS011;12006;42.666;23.326;2023-06-26T11:16:44;5.13;;;4.13;;
23658;SDS011;12006;42.666;23.326;2023-06-26T11:19:10;4.90;;;4.40;;
23658;SDS011;12006;42.666;23.326;2023-06-26T11:21:37;4.10;;;3.80;;
23658;SDS011;12006;42.666;23.326;2023-06-26T11:24:03;6.20;;;5.70;;
23658;SDS011;12006;42.666;23.326;2023-06-26T11:26:31;4.70;;;4.28;;
23658;SDS011;12006;42.666;23.326;2023-06-26T11:29:03;4.68;;;4.25;;
23658;SDS011;12006;42.666;23.326;2023-06-26T11:33:58;5.57;;;5.07;;
23658;SDS011;12006;42.666;23.326;2023-06-26T11:36:25;5.80;;;5.22;;
23658;SDS011;12006;42.666;23.326;2023-06-26T11:38:52;4.45;;;4.05;;
23658;SDS011;12006;42.666;23.326;2023-06-26T11:41:21;5.15;;;4.75;;
23658;SDS011;12006;42.666;23.326;2023-06-26T11:43:47;4.88;;;4.38;;
23658;SDS011;12006;42.666;23.326;2023-06-26T11:46:12;4.65;;;4.25;;
23658;SDS011;12006;42.666;23.326;2023-06-26T11:48:38;5.25;;;4.07;;
23658;SDS011;12006;42.666;23.326;2023-06-26T11:51:05;4.78;;;4.30;;
23658;SDS011;12006;42.666;23.326;2023-06-26T11:53:30;5.13;;;4.53;;
23658;SDS011;12006;42.666;23.326;2023-06-26T11:55:56;5.00;;;4.53;;
23658;SDS011;12006;42.666;23.326;2023-06-26T11:58:22;4.70;;;4.30;;
23658;SDS011;12006;42.666;23.326;2023-06-26T12:00:47;5.07;;;4.57;;
23658;SDS011;12006;42.666;23.326;2023-06-26T12:03:13;5.60;;;5.03;;
23658;SDS011;12006;42.666;23.326;2023-06-26T12:05:39;5.13;;;4.57;;
23658;SDS011;12006;42.666;23.326;2023-06-26T12:08:05;5.43;;;4.93;;
23658;SDS011;12006;42.666;23.326;2023-06-26T12:10:32;5.00;;;4.60;;
23658;SDS011;12006;42.666;23.326;2023-06-26T12:12:58;7.20;;;5.03;;
23658;SDS011;12006;42.666;23.326;2023-06-26T12:15:26;4.88;;;4.38;;
23658;SDS011;12006;42.666;23.326;2023-06-26T12:17:53;4.90;;;4.50;;
23658;SDS011;12006;42.666;23.326;2023-06-26T12:20:22;5.40;;;4.38;;
23658;SDS011;12006;42.666;23.326;2023-06-26T12:22:48;5.13;;;4.63;;
23658;SDS011;12006;42.666;23.326;2023-06-26T12:25:14;4.65;;;4.25;;
23658;SDS011;12006;42.666;23.326;2023-06-26T12:27:40;5.82;;;4.15;;
23658;SDS011;12006;42.666;23.326;2023-06-26T12:30:05;4.70;;;4.30;;
23658;SDS011;12006;42.666;23.326;2023-06-26T12:32:31;4.45;;;4.05;;
23658;SDS011;12006;42.666;23.326;2023-06-26T12:34:57;5.13;;;4.63;;
23658;SDS011;12006;42.666;23.326;2023-06-26T12:37:23;6.78;;;4.40;;
23658;SDS011;12006;42.666;23.326;2023-06-26T12:39:49;4.93;;;4.00;;
23658;SDS011;12006;42.666;23.326;2023-06-26T12:42:20;4.65;;;4.25;;
23658;SDS011;12006;42.666;23.326;2023-06-26T12:44:49;5.15;;;4.65;;
23658;SDS011;12006;42.666;23.326;2023-06-26T12:47:16;4.90;;;4.50;;
23658;SDS011;12006;42.666;23.326;2023-06-26T12:49:43;4.80;;;4.35;;
23658;SDS011;12006;42.666;23.326;2023-06-26T12:52:11;4.97;;;4.47;;
23658;SDS011;12006;42.666;23.326;2023-06-26T12:54:38;6.15;;;4.93;;
23658;SDS011;12006;42.666;23.326;2023-06-26T12:57:05;5.47;;;4.97;;
23658;SDS011;12006;42.666;23.326;2023-06-26T12:59:31;5.10;;;4.60;;
23658;SDS011;12006;42.666;23.326;2023-06-26T13:01:58;5.95;;;5.00;;
23658;SDS011;12006;42.666;23.326;2023-06-26T13:04:24;6.00;;;5.05;;
23658;SDS011;12006;42.666;23.326;2023-06-26T13:06:49;5.15;;;4.65;;
23658;SDS011;12006;42.666;23.326;2023-06-26T13:09:15;6.82;;;5.00;;
23658;SDS011;12006;42.666;23.326;2023-06-26T13:11:41;5.38;;;4.88;;
23658;SDS011;12006;42.666;23.326;2023-06-26T13:14:06;5.63;;;5.13;;
23658;SDS011;12006;42.666;23.326;2023-06-26T13:16:32;5.15;;;4.65;;
23658;SDS011;12006;42.666;23.326;2023-06-26T13:19:00;6.05;;;5.25;;
23658;SDS011;12006;42.666;23.326;2023-06-26T13:21:27;5.70;;;4.75;;
23658;SDS011;12006;42.666;23.326;2023-06-26T13:23:53;5.68;;;4.85;;
23658;SDS011;12006;42.666;23.326;2023-06-26T13:26:19;5.28;;;4.78;;
23658;SDS011;12006;42.666;23.326;2023-06-26T13:28:44;5.88;;;5.38;;
23658;SDS011;12006;42.666;23.326;2023-06-26T13:31:10;5.07;;;4.50;;
23658;SDS011;12006;42.666;23.326;2023-06-26T13:33:35;5.38;;;4.88;;
23658;SDS011;12006;42.666;23.326;2023-06-26T13:36:01;4.75;;;4.30;;
23658;SDS011;12006;42.666;23.326;2023-06-26T13:38:29;4.95;;;4.43;;
23658;SDS011;12006;42.666;23.326;2023-06-26T13:40:55;5.15;;;4.65;;
23658;SDS011;12006;42.666;23.326;2023-06-26T13:43:22;5.30;;;4.80;;
23658;SDS011;12006;42.666;23.326;2023-06-26T13:45:51;5.20;;;4.72;;
23658;SDS011;12006;42.666;23.326;2023-06-26T13:48:16;4.95;;;4.45;;
23658;SDS011;12006;42.666;23.326;2023-06-26T13:50:41;7.75;;;4.43;;
23658;SDS011;12006;42.666;23.326;2023-06-26T13:53:07;4.88;;;4.45;;
23658;SDS011;12006;42.666;23.326;2023-06-26T13:55:34;5.40;;;4.90;;
23658;SDS011;12006;42.666;23.326;2023-06-26T13:58:00;4.57;;;4.18;;
23658;SDS011;12006;42.666;23.326;2023-06-26T14:00:29;4.97;;;4.53;;
23658;SDS011;12006;42.666;23.326;2023-06-26T14:02:54;5.40;;;4.60;;
23658;SDS011;12006;42.666;23.326;2023-06-26T14:05:21;5.35;;;4.82;;
23658;SDS011;12006;42.666;23.326;2023-06-26T14:07:47;6.63;;;4.88;;
23658;SDS011;12006;42.666;23.326;2023-06-26T14:10:12;5.70;;;4.95;;
23658;SDS011;12006;42.666;23.326;2023-06-26T14:12:38;6.55;;;5.32;;
23658;SDS011;12006;42.666;23.326;2023-06-26T14:15:05;6.63;;;4.72;;
23658;SDS011;12006;42.666;23.326;2023-06-26T14:17:30;5.85;;;5.10;;
23658;SDS011;12006;42.666;23.326;2023-06-26T14:19:56;4.38;;;3.97;;
23658;SDS011;12006;42.666;23.326;2023-06-26T14:22:21;6.20;;;5.65;;
23658;SDS011;12006;42.666;23.326;2023-06-26T14:24:47;6.03;;;5.03;;
23658;SDS011;12006;42.666;23.326;2023-06-26T14:27:13;5.25;;;4.78;;
23658;SDS011;12006;42.666;23.326;2023-06-26T14:29:38;4.93;;;4.53;;
23658;SDS011;12006;42.666;23.326;2023-06-26T14:32:04;4.57;;;4.18;;
23658;SDS011;12006;42.666;23.326;2023-06-26T14:34:30;4.45;;;4.05;;